createdAt,value
2018-03-26T00:01:10.765Z,4.10
2018-03-26T00:03:39.144Z,4.00
2018-03-26T00:06:07.558Z,3.40
2018-03-26T00:08:35.961Z,3.17
2018-03-26T00:11:04.324Z,3.40
2018-03-26T00:13:32.788Z,3.40
2018-03-26T00:16:01.152Z,3.50
2018-03-26T00:18:29.562Z,3.87
2018-03-26T00:20:57.956Z,4.03
2018-03-26T00:23:26.314Z,3.63
2018-03-26T00:25:54.709Z,3.60
2018-03-26T00:28:23.081Z,3.83
2018-03-26T00:30:51.490Z,4.37
2018-03-26T00:33:19.865Z,4.67
2018-03-26T00:35:48.269Z,4.03
2018-03-26T00:38:16.872Z,4.43
2018-03-26T00:40:45.224Z,4.33
2018-03-26T00:43:13.626Z,4.63
2018-03-26T00:45:42.010Z,4.63
2018-03-26T00:48:10.400Z,4.63
2018-03-26T00:50:38.781Z,5.63
2018-03-26T00:53:07.141Z,5.40
2018-03-26T00:55:35.568Z,5.07
2018-03-26T00:58:03.963Z,4.97
2018-03-26T01:00:32.315Z,4.93
2018-03-26T01:03:01.675Z,5.53
2018-03-26T01:05:30.118Z,5.73
2018-03-26T01:07:58.508Z,5.33
2018-03-26T01:10:26.864Z,5.50
2018-03-26T01:12:55.346Z,7.13
2018-03-26T01:15:23.724Z,6.60
2018-03-26T01:17:52.070Z,6.07
2018-03-26T01:20:20.464Z,6.17
2018-03-26T01:22:48.837Z,6.77
2018-03-26T01:25:17.272Z,6.70
2018-03-26T01:27:45.648Z,6.80
2018-03-26T01:30:14.073Z,7.13
2018-03-26T01:32:42.481Z,7.10
2018-03-26T01:35:10.846Z,6.87
2018-03-26T01:37:39.192Z,7.50
2018-03-26T01:40:07.626Z,8.27
2018-03-26T01:42:36.070Z,8.93
2018-03-26T01:45:04.545Z,9.03
2018-03-26T01:47:32.926Z,11.07
2018-03-26T01:50:01.333Z,9.50
2018-03-26T01:52:29.711Z,9.77
2018-03-26T01:54:58.189Z,8.53
2018-03-26T01:57:26.565Z,8.93
2018-03-26T01:59:54.978Z,9.27
2018-03-26T02:02:23.372Z,10.03
2018-03-26T02:04:51.782Z,9.53
2018-03-26T02:07:20.185Z,7.60
2018-03-26T02:09:48.590Z,7.93
2018-03-26T02:12:17.005Z,9.03
2018-03-26T02:14:45.496Z,8.07
2018-03-26T02:17:13.856Z,7.93
2018-03-26T02:19:42.426Z,8.00
2018-03-26T02:22:10.824Z,9.03
2018-03-26T02:24:39.228Z,9.87
2018-03-26T02:27:07.581Z,11.60
2018-03-26T02:29:35.993Z,10.47
2018-03-26T02:32:04.371Z,10.80
2018-03-26T02:34:32.887Z,10.17
2018-03-26T02:37:01.405Z,8.37
2018-03-26T02:39:29.797Z,8.20
2018-03-26T02:41:58.228Z,7.37
2018-03-26T02:44:26.657Z,8.47
2018-03-26T02:46:55.061Z,7.97
2018-03-26T02:49:23.466Z,10.50
2018-03-26T02:51:51.889Z,10.43
2018-03-26T02:54:20.280Z,9.40
2018-03-26T02:56:48.660Z,8.07
2018-03-26T02:59:17.064Z,7.83
2018-03-26T03:01:45.577Z,6.70
2018-03-26T03:04:14.094Z,6.13
2018-03-26T03:06:42.484Z,5.73
2018-03-26T03:09:10.837Z,5.37
2018-03-26T03:11:39.232Z,4.63
2018-03-26T03:14:07.637Z,4.67
2018-03-26T03:16:36.047Z,5.87
2018-03-26T03:19:04.475Z,5.00
2018-03-26T03:21:32.892Z,5.23
2018-03-26T03:24:01.243Z,4.60
2018-03-26T03:26:29.652Z,4.50
2018-03-26T03:28:58.063Z,4.00
2018-03-26T03:31:26.457Z,4.07
2018-03-26T03:33:54.828Z,4.23
2018-03-26T03:36:23.324Z,3.63
2018-03-26T03:38:51.750Z,3.90
2018-03-26T03:41:20.154Z,3.93
2018-03-26T03:43:48.535Z,3.03
2018-03-26T03:46:16.908Z,2.70
2018-03-26T03:48:45.312Z,2.83
2018-03-26T03:51:13.673Z,2.83
2018-03-26T03:53:42.055Z,2.73
2018-03-26T03:56:10.456Z,3.00
2018-03-26T03:58:38.851Z,3.27
2018-03-26T04:01:07.371Z,2.83
2018-03-26T04:03:35.756Z,3.37
2018-03-26T04:06:04.178Z,3.13
2018-03-26T04:08:32.561Z,3.90
2018-03-26T04:11:00.949Z,3.87
2018-03-26T04:13:29.348Z,3.30
2018-03-26T04:15:57.738Z,4.00
2018-03-26T04:18:26.150Z,3.97
2018-03-26T04:20:54.488Z,4.27
2018-03-26T04:23:23.384Z,4.40
2018-03-26T04:25:51.758Z,5.77
2018-03-26T04:28:20.163Z,5.53
2018-03-26T04:30:48.533Z,5.07
2018-03-26T04:33:16.956Z,4.93
2018-03-26T04:35:45.312Z,4.87
2018-03-26T04:38:13.717Z,6.30
2018-03-26T04:40:42.077Z,5.30
2018-03-26T04:43:10.620Z,5.10
2018-03-26T04:45:39.033Z,5.90
2018-03-26T04:48:07.550Z,6.93
2018-03-26T04:50:35.965Z,5.70
2018-03-26T04:53:04.322Z,7.23
2018-03-26T04:55:32.731Z,7.50
2018-03-26T04:58:01.156Z,7.37
2018-03-26T05:00:29.599Z,7.30
2018-03-26T05:02:58.001Z,7.83
2018-03-26T05:05:26.497Z,7.43
2018-03-26T05:07:56.975Z,9.03
2018-03-26T05:10:25.351Z,8.27
2018-03-26T05:12:53.833Z,9.40
2018-03-26T05:15:22.192Z,9.63
2018-03-26T05:17:50.565Z,10.57
2018-03-26T05:20:18.993Z,10.27
2018-03-26T05:22:47.422Z,11.10
2018-03-26T05:25:15.822Z,11.40
2018-03-26T05:27:44.187Z,10.03
2018-03-26T05:30:12.707Z,8.60
2018-03-26T05:32:41.078Z,9.13
2018-03-26T05:35:09.457Z,9.33
2018-03-26T05:37:37.860Z,8.20
2018-03-26T05:40:06.292Z,8.83
2018-03-26T05:42:34.905Z,8.20
2018-03-26T05:45:03.300Z,9.23
2018-03-26T05:47:31.700Z,7.57
2018-03-26T05:50:00.065Z,8.03
2018-03-26T05:52:28.464Z,7.70
2018-03-26T05:54:56.893Z,7.93
2018-03-26T05:57:25.276Z,9.03
2018-03-26T05:59:53.723Z,9.30
2018-03-26T06:02:22.148Z,8.10
2018-03-26T06:04:50.541Z,7.30
2018-03-26T06:07:18.994Z,8.10
2018-03-26T06:09:47.380Z,9.00
2018-03-26T06:12:15.854Z,7.07
2018-03-26T06:14:44.241Z,8.23
2018-03-26T06:17:13.335Z,8.43
2018-03-26T06:19:41.915Z,9.23
2018-03-26T06:22:10.351Z,7.30
2018-03-26T06:24:38.857Z,6.10
2018-03-26T06:27:07.296Z,7.33
2018-03-26T06:29:35.712Z,6.40
2018-03-26T06:32:04.204Z,6.10
2018-03-26T06:34:32.641Z,7.07
2018-03-26T06:37:03.573Z,8.00
2018-03-26T06:39:32.012Z,7.80
2018-03-26T06:42:00.426Z,7.30
2018-03-26T06:44:28.844Z,7.30
2018-03-26T06:46:57.237Z,7.70
2018-03-26T06:49:25.673Z,6.23
2018-03-26T06:51:54.133Z,5.87
2018-03-26T06:54:22.680Z,5.57
2018-03-26T06:56:51.120Z,5.60
2018-03-26T06:59:19.518Z,5.43
2018-03-26T07:01:47.921Z,5.47
2018-03-26T07:04:16.342Z,5.47
2018-03-26T07:06:44.750Z,5.77
2018-03-26T07:09:13.288Z,5.87
2018-03-26T07:11:41.683Z,6.00
2018-03-26T07:14:10.093Z,6.60
2018-03-26T07:16:38.473Z,6.07
2018-03-26T07:19:06.930Z,5.47
2018-03-26T07:21:35.325Z,6.00
2018-03-26T07:24:03.755Z,5.67
2018-03-26T07:26:32.211Z,5.97
2018-03-26T07:29:00.585Z,5.17
2018-03-26T07:31:28.986Z,5.53
2018-03-26T07:33:57.405Z,5.53
2018-03-26T07:36:25.777Z,4.90
2018-03-26T07:38:54.184Z,4.50
2018-03-26T07:41:22.620Z,5.83
2018-03-26T07:43:51.133Z,5.70
2018-03-26T07:46:19.551Z,4.70
2018-03-26T07:48:47.936Z,4.30
2018-03-26T07:51:16.366Z,4.40
2018-03-26T07:53:44.803Z,4.47
2018-03-26T07:56:13.190Z,4.27
2018-03-26T07:58:41.609Z,4.53
2018-03-26T08:01:10.077Z,4.00
2018-03-26T08:03:38.486Z,4.40
2018-03-26T08:06:06.942Z,5.00
2018-03-26T08:08:35.397Z,3.67
2018-03-26T08:11:03.773Z,4.00
2018-03-26T08:13:32.498Z,4.80
2018-03-26T08:16:00.888Z,3.03
2018-03-26T08:18:29.268Z,4.03
2018-03-26T08:20:57.752Z,4.03
2018-03-26T08:23:26.144Z,4.03
2018-03-26T08:25:54.533Z,4.10
2018-03-26T08:28:23.226Z,4.13
2018-03-26T08:30:51.636Z,4.30
2018-03-26T08:33:20.053Z,4.27
2018-03-26T08:35:48.486Z,4.57
2018-03-26T08:38:16.930Z,3.87
2018-03-26T08:40:45.320Z,4.27
2018-03-26T08:43:13.905Z,4.13
2018-03-26T08:45:42.302Z,3.50
2018-03-26T08:48:10.726Z,3.20
2018-03-26T08:50:39.557Z,4.03
2018-03-26T08:53:07.969Z,3.93
2018-03-26T08:55:36.394Z,4.03
2018-03-26T08:58:04.828Z,3.97
2018-03-26T09:00:33.212Z,3.03
2018-03-26T09:03:01.610Z,2.43
2018-03-26T09:05:30.055Z,3.83
2018-03-26T09:07:58.424Z,3.73
2018-03-26T09:10:26.841Z,3.77
2018-03-26T09:12:55.702Z,3.27
2018-03-26T09:15:24.114Z,3.43
2018-03-26T09:17:52.526Z,3.00
2018-03-26T09:20:20.975Z,4.00
2018-03-26T09:22:49.366Z,4.17
2018-03-26T09:25:17.833Z,4.37
2018-03-26T09:27:46.231Z,3.80
2018-03-26T09:30:14.691Z,3.13
2018-03-26T09:32:43.167Z,4.73
2018-03-26T09:35:11.571Z,4.13
2018-03-26T09:37:40.033Z,4.27
2018-03-26T09:40:08.486Z,4.10
2018-03-26T09:42:36.881Z,4.10
2018-03-26T09:45:05.293Z,3.67
2018-03-26T09:47:33.727Z,3.47
2018-03-26T09:50:02.221Z,3.23
2018-03-26T09:52:30.657Z,3.90
2018-03-26T09:54:59.092Z,3.87
2018-03-26T09:57:27.578Z,3.83
2018-03-26T09:59:56.001Z,4.73
2018-03-26T10:02:24.397Z,3.90
2018-03-26T10:04:52.837Z,3.63
2018-03-26T10:07:21.224Z,4.07
2018-03-26T10:09:49.825Z,4.90
2018-03-26T10:12:18.324Z,4.57
2018-03-26T10:14:46.780Z,5.10
2018-03-26T10:17:15.224Z,4.67
2018-03-26T10:19:43.635Z,5.37
2018-03-26T10:22:11.998Z,5.43
2018-03-26T10:24:40.434Z,6.50
2018-03-26T10:27:08.832Z,6.50
2018-03-26T10:29:37.284Z,6.53
2018-03-26T10:32:05.716Z,4.37
2018-03-26T10:34:34.112Z,4.23
2018-03-26T10:37:02.531Z,6.60
2018-03-26T10:39:30.965Z,6.83
2018-03-26T10:41:59.358Z,6.23
2018-03-26T10:44:27.813Z,6.93
2018-03-26T10:46:56.217Z,6.43
2018-03-26T10:49:25.584Z,8.70
2018-03-26T10:51:54.030Z,6.30
2018-03-26T10:54:22.490Z,5.17
2018-03-26T10:56:50.893Z,4.13
2018-03-26T10:59:19.360Z,4.80
2018-03-26T11:01:47.778Z,5.43
2018-03-26T11:04:16.257Z,5.93
2018-03-26T11:06:44.891Z,4.77
2018-03-26T11:09:13.322Z,4.70
2018-03-26T11:11:41.793Z,4.67
2018-03-26T11:14:10.236Z,5.53
2018-03-26T11:16:38.650Z,5.23
2018-03-26T11:19:07.052Z,5.73
2018-03-26T11:21:35.478Z,5.60
2018-03-26T11:24:03.994Z,4.87
2018-03-26T11:26:32.450Z,5.43
2018-03-26T11:29:00.929Z,6.23
2018-03-26T11:31:29.393Z,5.93
2018-03-26T11:33:57.860Z,6.50
2018-03-26T11:36:26.349Z,6.83
2018-03-26T11:38:54.881Z,6.87
2018-03-26T11:41:23.336Z,5.27
2018-03-26T11:43:51.855Z,6.23
2018-03-26T11:46:20.353Z,7.90
2018-03-26T11:48:48.911Z,9.63
2018-03-26T11:51:17.382Z,6.23
2018-03-26T11:53:45.852Z,6.33
2018-03-26T11:56:14.306Z,8.33
2018-03-26T11:58:42.748Z,9.23
2018-03-26T12:01:11.237Z,8.87
2018-03-26T12:03:39.748Z,9.90
2018-03-26T12:06:08.230Z,8.67
2018-03-26T12:08:36.662Z,9.87
2018-03-26T12:11:05.187Z,10.23
2018-03-26T12:13:33.709Z,8.53
2018-03-26T12:16:02.173Z,7.60
2018-03-26T12:18:30.592Z,8.20
2018-03-26T12:21:01.773Z,6.80
2018-03-26T12:23:42.116Z,7.53
2018-03-26T12:26:10.635Z,9.27
2018-03-26T12:28:50.922Z,8.13
2018-03-26T12:31:19.372Z,7.13
2018-03-26T12:33:59.684Z,8.43
2018-03-26T12:36:28.210Z,7.00
2018-03-26T12:38:56.661Z,8.40
2018-03-26T12:41:25.099Z,7.43
2018-03-26T12:43:53.576Z,6.87
2018-03-26T12:46:33.807Z,6.60
2018-03-26T12:49:02.288Z,7.13
2018-03-26T12:51:42.598Z,7.93
2018-03-26T12:54:11.094Z,7.97
2018-03-26T12:56:39.524Z,8.13
2018-03-26T12:59:08.025Z,8.13
2018-03-26T13:01:48.360Z,9.20
2018-03-26T13:04:16.816Z,7.37
2018-03-26T13:06:45.336Z,7.40
2018-03-26T13:09:13.793Z,8.50
2018-03-26T13:11:42.249Z,8.97
2018-03-26T13:14:10.676Z,9.97
2018-03-26T13:16:39.156Z,8.87
2018-03-26T13:19:07.599Z,9.27
2018-03-26T13:21:36.030Z,9.07
2018-03-26T13:24:04.478Z,10.80
2018-03-26T13:26:33.008Z,10.50
2018-03-26T13:29:01.425Z,8.67
2018-03-26T13:31:29.898Z,10.30
2018-03-26T13:33:58.368Z,10.10
2018-03-26T13:36:26.838Z,11.33
2018-03-26T13:38:55.292Z,13.40
2018-03-26T13:41:23.720Z,42.23
2018-03-26T13:43:52.199Z,15.67
2018-03-26T13:46:20.694Z,13.63
2018-03-26T13:48:49.263Z,13.10
2018-03-26T13:51:17.739Z,16.20
2018-03-26T13:53:46.233Z,16.20
2018-03-26T13:56:14.714Z,13.57
2018-03-26T13:58:43.186Z,11.37
2018-03-26T14:01:11.657Z,10.97
2018-03-26T14:03:40.140Z,10.27
2018-03-26T14:06:08.578Z,8.80
2018-03-26T14:08:48.925Z,8.30
2018-03-26T14:11:29.352Z,8.80
2018-03-26T14:14:09.558Z,8.47
2018-03-26T14:16:50.063Z,9.00
2018-03-26T14:19:18.516Z,9.33
2018-03-26T14:21:47.010Z,10.10
2018-03-26T14:24:15.449Z,8.90
2018-03-26T14:26:44.185Z,9.77
2018-03-26T14:29:12.678Z,9.60
2018-03-26T14:31:41.150Z,10.30
2018-03-26T14:34:09.640Z,9.40
2018-03-26T14:36:38.199Z,10.43
2018-03-26T14:39:06.675Z,10.97
2018-03-26T14:41:35.180Z,9.70
2018-03-26T14:44:03.708Z,9.73
2018-03-26T14:46:32.226Z,10.70
2018-03-26T14:49:00.669Z,9.63
2018-03-26T14:51:29.149Z,9.47
2018-03-26T14:53:57.629Z,10.90
2018-03-26T14:56:26.062Z,9.47
2018-03-26T14:58:54.555Z,9.57
2018-03-26T15:01:22.983Z,10.27
2018-03-26T15:03:57.205Z,9.53
2018-03-26T15:06:25.682Z,10.30
2018-03-26T15:08:54.175Z,10.33
2018-03-26T15:11:22.633Z,11.57
2018-03-26T15:13:51.119Z,11.80
2018-03-26T15:16:19.588Z,13.30
2018-03-26T15:18:48.095Z,16.13
2018-03-26T15:21:16.598Z,15.20
2018-03-26T15:23:45.079Z,19.47
2018-03-26T15:26:13.578Z,20.00
2018-03-26T15:28:42.041Z,17.70
2018-03-26T15:31:10.541Z,15.43
2018-03-26T15:33:39.028Z,24.27
2018-03-26T15:36:07.511Z,22.43
2018-03-26T15:38:36.057Z,22.37
2018-03-26T15:41:04.571Z,29.80
2018-03-26T15:43:33.026Z,24.87
2018-03-26T15:46:01.467Z,17.73
2018-03-26T15:48:30.563Z,16.27
2018-03-26T15:50:59.459Z,16.30
2018-03-26T15:53:28.257Z,16.53
2018-03-26T15:55:57.138Z,15.73
2018-03-26T15:58:25.744Z,19.60
2018-03-26T16:00:54.368Z,18.80
2018-03-26T16:03:37.458Z,17.70
2018-03-26T16:06:05.965Z,18.90
2018-03-26T16:08:34.456Z,18.13
2018-03-26T16:11:02.990Z,19.67
2018-03-26T16:13:31.432Z,21.47
2018-03-26T16:15:59.919Z,17.87
2018-03-26T16:18:28.394Z,19.40
2018-03-26T16:20:56.900Z,18.97
2018-03-26T16:23:25.352Z,20.03
2018-03-26T16:25:53.849Z,19.60
2018-03-26T16:28:22.356Z,20.37
2018-03-26T16:30:50.869Z,21.10
2018-03-26T16:33:19.485Z,21.60
2018-03-26T16:35:47.969Z,22.33
2018-03-26T16:38:16.458Z,22.63
2018-03-26T16:40:45.157Z,25.10
2018-03-26T16:43:15.534Z,29.03
2018-03-26T16:45:49.224Z,26.57
2018-03-26T16:48:18.248Z,24.10
2018-03-26T16:50:47.624Z,25.20
2018-03-26T16:53:16.944Z,21.57
2018-03-26T16:55:45.982Z,23.17
2018-03-26T16:58:16.997Z,23.30
2018-03-26T17:00:46.653Z,23.27
2018-03-26T17:03:15.980Z,23.00
2018-03-26T17:05:44.661Z,19.80
2018-03-26T17:08:13.111Z,21.67
2018-03-26T17:10:42.597Z,22.63
2018-03-26T17:13:11.357Z,22.63
2018-03-26T17:15:40.151Z,27.67
2018-03-26T17:18:08.850Z,35.40
2018-03-26T17:20:37.430Z,28.37
2018-03-26T17:23:05.965Z,36.07
2018-03-26T17:25:34.378Z,31.97
2018-03-26T17:28:02.845Z,34.07
2018-03-26T17:30:31.267Z,29.60
2018-03-26T17:33:00.067Z,33.57
2018-03-26T17:35:28.576Z,56.30
2018-03-26T17:37:57.028Z,45.67
2018-03-26T17:40:25.521Z,30.77
2018-03-26T17:42:54.065Z,25.00
2018-03-26T17:45:22.520Z,23.70
2018-03-26T17:47:51.042Z,39.43
2018-03-26T17:50:19.550Z,49.40
2018-03-26T17:52:47.998Z,52.03
2018-03-26T17:55:16.533Z,49.17
2018-03-26T17:57:44.975Z,44.27
2018-03-26T18:00:13.437Z,35.83
2018-03-26T18:02:41.957Z,34.20
2018-03-26T18:05:10.487Z,33.77
2018-03-26T18:07:38.983Z,32.37
2018-03-26T18:10:07.560Z,30.97
2018-03-26T18:12:36.037Z,52.17
2018-03-26T18:15:04.555Z,37.37
2018-03-26T18:17:33.063Z,46.23
2018-03-26T18:20:01.647Z,31.37
2018-03-26T18:22:30.169Z,35.73
2018-03-26T18:24:58.620Z,47.90
2018-03-26T18:27:27.092Z,48.67
2018-03-26T18:29:55.548Z,52.37
2018-03-26T18:32:24.017Z,55.90
2018-03-26T18:34:52.477Z,64.53
2018-03-26T18:37:20.945Z,63.67
2018-03-26T18:39:49.400Z,60.83
2018-03-26T18:42:17.829Z,53.13
2018-03-26T18:44:46.292Z,51.67
2018-03-26T18:47:14.797Z,50.93
2018-03-26T18:49:43.252Z,51.47
2018-03-26T18:52:11.725Z,57.87
2018-03-26T18:54:40.193Z,55.60
2018-03-26T18:57:08.733Z,52.50
2018-03-26T18:59:37.209Z,50.13
2018-03-26T19:02:05.674Z,49.20
2018-03-26T19:04:34.124Z,55.63
2018-03-26T19:07:02.583Z,49.37
2018-03-26T19:09:31.061Z,48.80
2018-03-26T19:11:59.550Z,45.70
2018-03-26T19:14:28.028Z,45.17
2018-03-26T19:16:56.456Z,47.20
2018-03-26T19:19:24.895Z,50.63
2018-03-26T19:21:53.372Z,53.33
2018-03-26T19:24:21.803Z,54.60
2018-03-26T19:26:50.242Z,55.00
2018-03-26T19:29:18.735Z,57.77
2018-03-26T19:31:47.184Z,61.60
2018-03-26T19:34:16.826Z,63.23
2018-03-26T19:36:45.438Z,65.63
2018-03-26T19:39:13.976Z,70.70
2018-03-26T19:41:42.413Z,71.20
2018-03-26T19:44:10.860Z,57.70
2018-03-26T19:46:39.345Z,53.63
2018-03-26T19:49:07.797Z,58.43
2018-03-26T19:51:36.270Z,65.90
2018-03-26T19:54:04.970Z,72.53
2018-03-26T19:56:33.549Z,75.40
2018-03-26T19:59:02.074Z,76.07
2018-03-26T20:01:30.519Z,71.83
2018-03-26T20:03:58.978Z,55.80
2018-03-26T20:06:27.457Z,66.53
2018-03-26T20:08:55.889Z,62.27
2018-03-26T20:11:24.321Z,56.57
2018-03-26T20:13:52.786Z,61.70
2018-03-26T20:16:21.265Z,58.63
2018-03-26T20:18:49.728Z,55.00
2018-03-26T20:21:18.166Z,57.67
2018-03-26T20:23:46.644Z,51.60
2018-03-26T20:26:15.067Z,56.60
2018-03-26T20:28:43.528Z,56.93
2018-03-26T20:31:11.989Z,53.83
2018-03-26T20:33:40.460Z,53.43
2018-03-26T20:36:08.979Z,48.83
2018-03-26T20:38:37.456Z,49.77
2018-03-26T20:41:05.914Z,52.93
2018-03-26T20:43:34.373Z,62.90
2018-03-26T20:46:02.952Z,60.77
2018-03-26T20:48:31.436Z,58.23
2018-03-26T20:50:59.877Z,60.00
2018-03-26T20:53:28.374Z,63.50
2018-03-26T20:55:56.815Z,59.93
2018-03-26T20:58:25.322Z,61.00
2018-03-26T21:00:53.806Z,62.27
2018-03-26T21:03:22.245Z,59.60
2018-03-26T21:05:50.901Z,58.03
2018-03-26T21:08:19.384Z,55.97
2018-03-26T21:10:47.822Z,57.03
2018-03-26T21:13:16.289Z,56.60
2018-03-26T21:15:44.750Z,54.43
2018-03-26T21:18:13.180Z,56.20
2018-03-26T21:20:41.697Z,59.00
2018-03-26T21:23:10.160Z,55.23
2018-03-26T21:25:38.657Z,52.80
2018-03-26T21:28:07.082Z,51.23
2018-03-26T21:30:35.596Z,55.67
2018-03-26T21:33:04.079Z,56.87
2018-03-26T21:35:32.589Z,58.40
2018-03-26T21:38:01.049Z,59.80
2018-03-26T21:40:29.537Z,54.90
2018-03-26T21:42:58.049Z,63.73
2018-03-26T21:45:26.541Z,63.70
2018-03-26T21:47:54.989Z,59.27
2018-03-26T21:50:23.441Z,62.60
2018-03-26T21:52:51.937Z,65.43
2018-03-26T21:55:20.443Z,63.63
2018-03-26T21:57:48.940Z,65.80
2018-03-26T22:00:21.075Z,66.40
2018-03-26T22:02:49.588Z,68.13
2018-03-26T22:05:18.024Z,68.70
2018-03-26T22:07:46.517Z,69.07
2018-03-26T22:10:14.916Z,71.03
2018-03-26T22:12:43.439Z,74.30
2018-03-26T22:15:11.900Z,74.90
2018-03-26T22:17:40.433Z,73.10
2018-03-26T22:20:08.996Z,71.83
2018-03-26T22:22:37.403Z,72.43
2018-03-26T22:25:05.882Z,71.37
2018-03-26T22:27:34.340Z,74.57
2018-03-26T22:30:02.870Z,77.33
2018-03-26T22:32:31.338Z,76.43
2018-03-26T22:34:59.812Z,83.43
2018-03-26T22:37:28.310Z,76.30
2018-03-26T22:39:57.104Z,76.83
2018-03-26T22:42:25.611Z,75.03
2018-03-26T22:44:54.069Z,70.77
2018-03-26T22:47:22.537Z,73.10
2018-03-26T22:49:51.036Z,68.57
2018-03-26T22:52:19.512Z,67.03
2018-03-26T22:54:47.950Z,68.40
2018-03-26T22:57:16.439Z,65.10
2018-03-26T22:59:44.887Z,59.00
2018-03-26T23:02:13.544Z,54.67
2018-03-26T23:04:42.194Z,53.20
2018-03-26T23:07:10.686Z,56.47
2018-03-26T23:09:39.114Z,54.53
2018-03-26T23:12:07.620Z,58.97
2018-03-26T23:14:36.094Z,60.17
2018-03-26T23:17:04.562Z,61.33
2018-03-26T23:19:33.048Z,60.57
2018-03-26T23:24:36.302Z,55.77
2018-03-26T23:27:04.785Z,57.10
2018-03-26T23:29:33.260Z,53.90
2018-03-26T23:32:01.660Z,58.93
2018-03-26T23:34:30.077Z,59.53
2018-03-26T23:36:58.542Z,58.67
2018-03-26T23:39:26.948Z,57.70
2018-03-26T23:41:55.455Z,51.27
2018-03-26T23:44:24.057Z,51.17
2018-03-26T23:46:52.481Z,54.13
2018-03-26T23:49:20.987Z,54.40
2018-03-26T23:51:49.477Z,56.30
2018-03-26T23:54:17.924Z,52.10
2018-03-26T23:56:46.401Z,48.13
2018-03-26T23:59:14.892Z,49.80
